sensor_id;sensor_type;location;lat;lon;timestamp;pressure;altitude;pressure_sealevel;temperature;humidity
7026;BME280;3554;42.132;24.786;2023-03-31T00:01:05;99466.81;;;10.11;98.57
7026;BME280;3554;42.132;24.786;2023-03-31T00:03:32;99454.31;;;10.19;98.30
7026;BME280;3554;42.132;24.786;2023-03-31T00:06:04;99463.63;;;10.26;99.03
7026;BME280;3554;42.132;24.786;2023-03-31T00:08:31;99443.66;;;10.00;97.73
7026;BME280;3554;42.132;24.786;2023-03-31T00:11:01;99456.88;;;9.96;99.23
7026;BME280;3554;42.132;24.786;2023-03-31T00:13:30;99448.88;;;10.00;99.81
7026;BME280;3554;42.132;24.786;2023-03-31T00:16:01;99399.63;;;9.65;99.67
7026;BME280;3554;42.132;24.786;2023-03-31T00:18:28;99438.13;;;10.08;99.61
7026;BME280;3554;42.132;24.786;2023-03-31T00:21:05;99382.31;;;9.62;100.00
7026;BME280;3554;42.132;24.786;2023-03-31T00:23:32;99449.72;;;10.01;100.00
7026;BME280;3554;42.132;24.786;2023-03-31T00:25:58;99444.22;;;9.85;100.00
7026;BME280;3554;42.132;24.786;2023-03-31T00:28:25;99444.25;;;9.60;100.00
7026;BME280;3554;42.132;24.786;2023-03-31T00:30:52;99441.97;;;9.74;100.00
7026;BME280;3554;42.132;24.786;2023-03-31T00:33:20;99440.00;;;9.81;100.00
7026;BME280;3554;42.132;24.786;2023-03-31T00:35:50;99439.09;;;9.82;100.00
7026;BME280;3554;42.132;24.786;2023-03-31T00:38:17;99437.63;;;9.75;100.00
7026;BME280;3554;42.132;24.786;2023-03-31T00:40:46;99438.97;;;9.85;100.00
7026;BME280;3554;42.132;24.786;2023-03-31T00:43:25;99436.72;;;9.99;100.00
7026;BME280;3554;42.132;24.786;2023-03-31T00:45:53;99423.81;;;9.95;100.00
7026;BME280;3554;42.132;24.786;2023-03-31T00:48:22;99431.25;;;9.82;100.00
7026;BME280;3554;42.132;24.786;2023-03-31T00:50:54;99404.25;;;9.58;100.00
7026;BME280;3554;42.132;24.786;2023-03-31T00:53:23;99426.91;;;9.81;100.00
7026;BME280;3554;42.132;24.786;2023-03-31T00:55:53;99369.75;;;9.49;100.00
7026;BME280;3554;42.132;24.786;2023-03-31T00:58:22;99393.78;;;9.58;100.00
7026;BME280;3554;42.132;24.786;2023-03-31T01:00:54;99407.22;;;9.72;100.00
7026;BME280;3554;42.132;24.786;2023-03-31T01:03:25;99418.66;;;9.68;100.00
7026;BME280;3554;42.132;24.786;2023-03-31T01:05:55;99415.72;;;9.77;100.00
7026;BME280;3554;42.132;24.786;2023-03-31T01:08:25;99402.22;;;9.42;100.00
7026;BME280;3554;42.132;24.786;2023-03-31T01:10:54;99386.56;;;9.17;100.00
7026;BME280;3554;42.132;24.786;2023-03-31T01:13:23;99419.19;;;9.30;100.00
7026;BME280;3554;42.132;24.786;2023-03-31T01:15:51;99419.94;;;9.34;100.00
7026;BME280;3554;42.132;24.786;2023-03-31T01:18:19;99426.22;;;9.53;100.00
7026;BME280;3554;42.132;24.786;2023-03-31T01:24:12;99420.25;;;9.49;100.00
7026;BME280;3554;42.132;24.786;2023-03-31T01:27:00;99422.72;;;9.54;100.00
7026;BME280;3554;42.132;24.786;2023-03-31T01:30:02;99419.81;;;9.61;
7026;BME280;3554;42.132;24.786;2023-03-31T01:33:06;99408.59;;;9.58;100.00
7026;BME280;3554;42.132;24.786;2023-03-31T01:36:10;99407.03;;;9.54;100.00
7026;BME280;3554;42.132;24.786;2023-03-31T01:39:12;99404.44;;;9.52;100.00
7026;BME280;3554;42.132;24.786;2023-03-31T01:41:48;99408.94;;;9.49;100.00
7026;BME280;3554;42.132;24.786;2023-03-31T01:44:27;99410.06;;;9.42;100.00
7026;BME280;3554;42.132;24.786;2023-03-31T01:47:03;99396.00;;;9.21;100.00
7026;BME280;3554;42.132;24.786;2023-03-31T01:49:39;99381.13;;;8.99;100.00
7026;BME280;3554;42.132;24.786;2023-03-31T01:52:15;99394.75;;;8.82;100.00
7026;BME280;3554;42.132;24.786;2023-03-31T01:54:47;99376.72;;;8.75;100.00
7026;BME280;3554;42.132;24.786;2023-03-31T01:57:20;99391.56;;;8.99;100.00
7026;BME280;3554;42.132;24.786;2023-03-31T01:59:53;99384.31;;;8.82;100.00
7026;BME280;3554;42.132;24.786;2023-03-31T02:02:27;99383.66;;;8.76;100.00
7026;BME280;3554;42.132;24.786;2023-03-31T02:04:58;99386.16;;;8.79;100.00
7026;BME280;3554;42.132;24.786;2023-03-31T02:07:30;99380.38;;;8.69;100.00
7026;BME280;3554;42.132;24.786;2023-03-31T02:10:02;99372.09;;;8.56;100.00
7026;BME280;3554;42.132;24.786;2023-03-31T02:12:33;99377.59;;;8.47;100.00
7026;BME280;3554;42.132;24.786;2023-03-31T02:15:03;99375.97;;;8.45;100.00
7026;BME280;3554;42.132;24.786;2023-03-31T02:17:32;99362.56;;;8.29;100.00
7026;BME280;3554;42.132;24.786;2023-03-31T02:20:03;99371.44;;;8.24;100.00
7026;BME280;3554;42.132;24.786;2023-03-31T02:22:34;99366.06;;;8.28;100.00
7026;BME280;3554;42.132;24.786;2023-03-31T02:25:04;99367.53;;;8.37;100.00
7026;BME280;3554;42.132;24.786;2023-03-31T02:27:36;99359.16;;;8.53;100.00
7026;BME280;3554;42.132;24.786;2023-03-31T02:30:05;99354.81;;;8.54;100.00
7026;BME280;3554;42.132;24.786;2023-03-31T02:32:35;99368.44;;;8.62;100.00
7026;BME280;3554;42.132;24.786;2023-03-31T02:35:04;99367.00;;;8.53;100.00
7026;BME280;3554;42.132;24.786;2023-03-31T02:37:31;99366.34;;;8.47;100.00
7026;BME280;3554;42.132;24.786;2023-03-31T02:40:02;99352.75;;;8.37;100.00
7026;BME280;3554;42.132;24.786;2023-03-31T02:42:35;99369.50;;;8.56;100.00
7026;BME280;3554;42.132;24.786;2023-03-31T02:45:02;99374.16;;;8.73;100.00
7026;BME280;3554;42.132;24.786;2023-03-31T02:47:29;99375.56;;;8.83;100.00
7026;BME280;3554;42.132;24.786;2023-03-31T02:49:58;99373.50;;;8.93;100.00
7026;BME280;3554;42.132;24.786;2023-03-31T02:52:45;99379.59;;;8.93;100.00
7026;BME280;3554;42.132;24.786;2023-03-31T02:58:28;99373.88;;;9.07;100.00
7026;BME280;3554;42.132;24.786;2023-03-31T03:01:06;99374.69;;;9.09;100.00
7026;BME280;3554;42.132;24.786;2023-03-31T03:03:43;99374.56;;;9.12;100.00
7026;BME280;3554;42.132;24.786;2023-03-31T03:06:18;99373.63;;;9.14;100.00
7026;BME280;3554;42.132;24.786;2023-03-31T03:08:59;99382.31;;;9.15;100.00
7026;BME280;3554;42.132;24.786;2023-03-31T03:11:32;99386.56;;;9.17;100.00
7026;BME280;3554;42.132;24.786;2023-03-31T03:14:11;99386.63;;;9.16;100.00
7026;BME280;3554;42.132;24.786;2023-03-31T03:16:44;99353.41;;;8.95;100.00
7026;BME280;3554;42.132;24.786;2023-03-31T03:19:18;99391.03;;;9.14;100.00
7026;BME280;3554;42.132;24.786;2023-03-31T03:21:45;99390.22;;;9.12;100.00
7026;BME280;3554;42.132;24.786;2023-03-31T03:24:13;99406.69;;;9.14;100.00
7026;BME280;3554;42.132;24.786;2023-03-31T03:26:41;99379.16;;;9.05;100.00
7026;BME280;3554;42.132;24.786;2023-03-31T03:29:11;99401.47;;;9.14;100.00
7026;BME280;3554;42.132;24.786;2023-03-31T03:31:39;99403.94;;;9.18;100.00
7026;BME280;3554;42.132;24.786;2023-03-31T03:34:06;99399.94;;;9.08;100.00
7026;BME280;3554;42.132;24.786;2023-03-31T03:36:34;99409.53;;;9.08;100.00
7026;BME280;3554;42.132;24.786;2023-03-31T03:39:02;99388.69;;;9.06;100.00
7026;BME280;3554;42.132;24.786;2023-03-31T03:41:29;99410.31;;;9.10;100.00
7026;BME280;3554;42.132;24.786;2023-03-31T03:43:57;99401.28;;;8.94;100.00
7026;BME280;3554;42.132;24.786;2023-03-31T03:46:26;99401.78;;;9.05;100.00
7026;BME280;3554;42.132;24.786;2023-03-31T03:48:53;99388.03;;;8.75;100.00
7026;BME280;3554;42.132;24.786;2023-03-31T03:51:21;99407.44;;;8.67;100.00
7026;BME280;3554;42.132;24.786;2023-03-31T03:53:47;99394.22;;;8.71;100.00
7026;BME280;3554;42.132;24.786;2023-03-31T03:56:14;99395.03;;;8.73;100.00
7026;BME280;3554;42.132;24.786;2023-03-31T03:58:41;99398.94;;;8.60;100.00
7026;BME280;3554;42.132;24.786;2023-03-31T04:01:08;99395.75;;;8.52;100.00
7026;BME280;3554;42.132;24.786;2023-03-31T04:03:36;99405.13;;;8.57;100.00
7026;BME280;3554;42.132;24.786;2023-03-31T04:06:03;99393.66;;;8.63;100.00
7026;BME280;3554;42.132;24.786;2023-03-31T04:08:30;99406.13;;;8.53;100.00
7026;BME280;3554;42.132;24.786;2023-03-31T04:10:57;99403.22;;;8.62;100.00
7026;BME280;3554;42.132;24.786;2023-03-31T04:13:23;99401.91;;;8.49;100.00
7026;BME280;3554;42.132;24.786;2023-03-31T04:15:50;99400.03;;;8.53;100.00
7026;BME280;3554;42.132;24.786;2023-03-31T04:18:17;99386.34;;;8.46;100.00
7026;BME280;3554;42.132;24.786;2023-03-31T04:20:48;99384.44;;;8.51;100.00
7026;BME280;3554;42.132;24.786;2023-03-31T04:23:20;99378.81;;;8.65;100.00
7026;BME280;3554;42.132;24.786;2023-03-31T04:25:49;99377.19;;;8.61;100.00
7026;BME280;3554;42.132;24.786;2023-03-31T04:28:15;99376.38;;;8.59;100.00
7026;BME280;3554;42.132;24.786;2023-03-31T04:30:42;99369.81;;;8.74;100.00
7026;BME280;3554;42.132;24.786;2023-03-31T04:33:09;99371.63;;;8.72;100.00
7026;BME280;3554;42.132;24.786;2023-03-31T04:35:40;99307.72;;;8.32;100.00
7026;BME280;3554;42.132;24.786;2023-03-31T04:38:16;99327.59;;;8.35;100.00
7026;BME280;3554;42.132;24.786;2023-03-31T04:40:45;99364.94;;;8.63;100.00
7026;BME280;3554;42.132;24.786;2023-03-31T04:43:12;99364.22;;;8.58;100.00
7026;BME280;3554;42.132;24.786;2023-03-31T04:45:40;99369.25;;;8.64;100.00
7026;BME280;3554;42.132;24.786;2023-03-31T04:48:07;99369.81;;;8.74;100.00
7026;BME280;3554;42.132;24.786;2023-03-31T04:50:34;99309.91;;;8.44;100.00
7026;BME280;3554;42.132;24.786;2023-03-31T04:53:01;99374.06;;;8.76;100.00
7026;BME280;3554;42.132;24.786;2023-03-31T04:55:30;99339.59;;;8.40;100.00
7026;BME280;3554;42.132;24.786;2023-03-31T04:57:57;99372.59;;;8.68;100.00
7026;BME280;3554;42.132;24.786;2023-03-31T05:00:24;99368.38;;;8.63;100.00
7026;BME280;3554;42.132;24.786;2023-03-31T05:02:51;99367.09;;;8.77;100.00
7026;BME280;3554;42.132;24.786;2023-03-31T05:05:18;99361.41;;;8.90;100.00
7026;BME280;3554;42.132;24.786;2023-03-31T05:07:45;99351.31;;;9.04;100.00
7026;BME280;3554;42.132;24.786;2023-03-31T05:10:12;99354.59;;;9.11;100.00
7026;BME280;3554;42.132;24.786;2023-03-31T05:12:40;99351.06;;;9.12;100.00
7026;BME280;3554;42.132;24.786;2023-03-31T05:15:08;99341.53;;;9.11;100.00
7026;BME280;3554;42.132;24.786;2023-03-31T05:17:35;99324.31;;;9.30;100.00
7026;BME280;3554;42.132;24.786;2023-03-31T05:20:02;99327.09;;;9.25;100.00
7026;BME280;3554;42.132;24.786;2023-03-31T05:22:33;99251.44;;;8.99;100.00
7026;BME280;3554;42.132;24.786;2023-03-31T05:25:00;99298.53;;;9.21;100.00
7026;BME280;3554;42.132;24.786;2023-03-31T05:27:27;99315.63;;;9.29;100.00
7026;BME280;3554;42.132;24.786;2023-03-31T05:29:55;99325.00;;;9.35;100.00
7026;BME280;3554;42.132;24.786;2023-03-31T05:32:22;99315.97;;;9.43;100.00
7026;BME280;3554;42.132;24.786;2023-03-31T05:34:50;99264.97;;;9.10;100.00
7026;BME280;3554;42.132;24.786;2023-03-31T05:37:22;99291.91;;;9.35;100.00
7026;BME280;3554;42.132;24.786;2023-03-31T05:39:49;99317.81;;;9.40;100.00
7026;BME280;3554;42.132;24.786;2023-03-31T05:42:17;99300.88;;;9.51;100.00
7026;BME280;3554;42.132;24.786;2023-03-31T05:44:44;99310.78;;;9.65;100.00
7026;BME280;3554;42.132;24.786;2023-03-31T05:47:12;99301.38;;;9.61;100.00
7026;BME280;3554;42.132;24.786;2023-03-31T05:49:39;99294.31;;;9.40;100.00
7026;BME280;3554;42.132;24.786;2023-03-31T05:52:06;99308.63;;;9.53;100.00
7026;BME280;3554;42.132;24.786;2023-03-31T05:54:34;99310.72;;;9.20;100.00
7026;BME280;3554;42.132;24.786;2023-03-31T05:57:01;99297.63;;;9.22;100.00
7026;BME280;3554;42.132;24.786;2023-03-31T05:59:28;99295.06;;;9.20;100.00
7026;BME280;3554;42.132;24.786;2023-03-31T06:01:55;99302.88;;;9.45;100.00
7026;BME280;3554;42.132;24.786;2023-03-31T06:04:24;99293.03;;;9.51;100.00
7026;BME280;3554;42.132;24.786;2023-03-31T06:06:50;99268.19;;;9.17;100.00
7026;BME280;3554;42.132;24.786;2023-03-31T06:09:18;99275.75;;;9.24;100.00
7026;BME280;3554;42.132;24.786;2023-03-31T06:11:45;99285.78;;;9.12;100.00
7026;BME280;3554;42.132;24.786;2023-03-31T06:14:12;99283.03;;;9.16;100.00
7026;BME280;3554;42.132;24.786;2023-03-31T06:16:39;99298.00;;;8.62;100.00
7026;BME280;3554;42.132;24.786;2023-03-31T06:19:06;99261.78;;;8.28;100.00
7026;BME280;3554;42.132;24.786;2023-03-31T06:21:34;99294.13;;;8.49;100.00
7026;BME280;3554;42.132;24.786;2023-03-31T06:24:01;99304.03;;;8.64;100.00
7026;BME280;3554;42.132;24.786;2023-03-31T06:26:27;99296.81;;;8.72;100.00
7026;BME280;3554;42.132;24.786;2023-03-31T06:28:54;99288.22;;;8.69;100.00
7026;BME280;3554;42.132;24.786;2023-03-31T06:31:22;99290.03;;;8.67;100.00
7026;BME280;3554;42.132;24.786;2023-03-31T06:33:50;99273.59;;;8.38;100.00
7026;BME280;3554;42.132;24.786;2023-03-31T06:36:18;99270.66;;;8.49;100.00
7026;BME280;3554;42.132;24.786;2023-03-31T06:38:47;99276.69;;;8.49;100.00
7026;BME280;3554;42.132;24.786;2023-03-31T06:41:16;99291.84;;;8.64;100.00
7026;BME280;3554;42.132;24.786;2023-03-31T06:43:43;99265.31;;;8.77;100.00
7026;BME280;3554;42.132;24.786;2023-03-31T06:46:11;99291.47;;;9.00;100.00
7026;BME280;3554;42.132;24.786;2023-03-31T06:48:38;99282.34;;;9.11;100.00
7026;BME280;3554;42.132;24.786;2023-03-31T06:51:07;99261.28;;;9.16;100.00
7026;BME280;3554;42.132;24.786;2023-03-31T06:53:35;99275.66;;;9.50;100.00
7026;BME280;3554;42.132;24.786;2023-03-31T06:56:04;99270.78;;;9.63;100.00
7026;BME280;3554;42.132;24.786;2023-03-31T06:58:31;99278.66;;;9.85;100.00
7026;BME280;3554;42.132;24.786;2023-03-31T07:01:01;99271.19;;;9.97;100.00
7026;BME280;3554;42.132;24.786;2023-03-31T07:03:28;99265.81;;;9.57;100.00
7026;BME280;3554;42.132;24.786;2023-03-31T07:05:55;99259.56;;;9.61;100.00
7026;BME280;3554;42.132;24.786;2023-03-31T07:08:22;99239.38;;;10.29;100.00
7026;BME280;3554;42.132;24.786;2023-03-31T07:10:53;99264.66;;;10.70;100.00
7026;BME280;3554;42.132;24.786;2023-03-31T07:13:22;99252.19;;;10.15;100.00
7026;BME280;3554;42.132;24.786;2023-03-31T07:15:49;99238.28;;;9.92;100.00
7026;BME280;3554;42.132;24.786;2023-03-31T07:18:16;99255.94;;;10.30;100.00
7026;BME280;3554;42.132;24.786;2023-03-31T07:20:46;99259.63;;;10.46;100.00
7026;BME280;3554;42.132;24.786;2023-03-31T07:23:13;99262.31;;;10.44;100.00
7026;BME280;3554;42.132;24.786;2023-03-31T07:25:39;99262.25;;;10.66;100.00
7026;BME280;3554;42.132;24.786;2023-03-31T07:28:06;99271.41;;;10.96;100.00
7026;BME280;3554;42.132;24.786;2023-03-31T07:30:34;99270.75;;;11.48;100.00
7026;BME280;3554;42.132;24.786;2023-03-31T07:33:01;99260.16;;;11.89;100.00
7026;BME280;3554;42.132;24.786;2023-03-31T07:35:28;99259.72;;;11.98;100.00
7026;BME280;3554;42.132;24.786;2023-03-31T07:37:55;99265.50;;;12.57;99.28
7026;BME280;3554;42.132;24.786;2023-03-31T07:40:24;99274.84;;;12.97;93.06
7026;BME280;3554;42.132;24.786;2023-03-31T07:42:51;99234.69;;;12.43;92.65
7026;BME280;3554;42.132;24.786;2023-03-31T07:45:19;99270.38;;;12.47;95.58
7026;BME280;3554;42.132;24.786;2023-03-31T07:47:48;99265.03;;;12.83;93.14
7026;BME280;3554;42.132;24.786;2023-03-31T07:50:15;99263.72;;;12.91;92.98
7026;BME280;3554;42.132;24.786;2023-03-31T07:52:42;99257.06;;;12.67;95.54
7026;BME280;3554;42.132;24.786;2023-03-31T07:55:09;99267.22;;;12.58;98.98
7026;BME280;3554;42.132;24.786;2023-03-31T07:57:37;99222.09;;;12.50;99.64
7026;BME280;3554;42.132;24.786;2023-03-31T08:00:06;99189.94;;;12.79;95.39
7026;BME280;3554;42.132;24.786;2023-03-31T08:02:36;99253.38;;;13.38;92.89
7026;BME280;3554;42.132;24.786;2023-03-31T08:05:05;99248.81;;;13.73;93.04
7026;BME280;3554;42.132;24.786;2023-03-31T08:07:32;99245.75;;;13.96;90.16
7026;BME280;3554;42.132;24.786;2023-03-31T08:09:59;99239.19;;;14.03;85.91
7026;BME280;3554;42.132;24.786;2023-03-31T08:12:26;99230.69;;;14.14;84.69
7026;BME280;3554;42.132;24.786;2023-03-31T08:14:53;99214.91;;;14.29;86.62
7026;BME280;3554;42.132;24.786;2023-03-31T08:17:20;99210.94;;;14.52;84.16
7026;BME280;3554;42.132;24.786;2023-03-31T08:19:46;99210.09;;;14.65;83.06
7026;BME280;3554;42.132;24.786;2023-03-31T08:22:15;99201.28;;;14.80;82.13
7026;BME280;3554;42.132;24.786;2023-03-31T08:24:42;99204.38;;;14.87;77.89
7026;BME280;3554;42.132;24.786;2023-03-31T08:27:09;99177.06;;;14.74;78.03
7026;BME280;3554;42.132;24.786;2023-03-31T08:29:36;99185.09;;;14.72;78.57
7026;BME280;3554;42.132;24.786;2023-03-31T08:32:03;99180.22;;;14.80;79.42
7026;BME280;3554;42.132;24.786;2023-03-31T08:34:29;99176.16;;;14.89;77.13
7026;BME280;3554;42.132;24.786;2023-03-31T08:36:56;99177.47;;;15.10;76.97
7026;BME280;3554;42.132;24.786;2023-03-31T08:39:24;99176.25;;;15.01;76.86
7026;BME280;3554;42.132;24.786;2023-03-31T08:41:57;99173.53;;;15.03;76.42
7026;BME280;3554;42.132;24.786;2023-03-31T08:44:30;99170.03;;;15.02;77.24
7026;BME280;3554;42.132;24.786;2023-03-31T08:47:00;99173.22;;;14.93;78.02
7026;BME280;3554;42.132;24.786;2023-03-31T08:49:32;99150.25;;;15.10;79.25
7026;BME280;3554;42.132;24.786;2023-03-31T08:52:04;99152.94;;;15.36;75.44
7026;BME280;3554;42.132;24.786;2023-03-31T08:54:38;99150.03;;;15.55;74.55
7026;BME280;3554;42.132;24.786;2023-03-31T08:57:13;99140.50;;;15.79;76.99
7026;BME280;3554;42.132;24.786;2023-03-31T08:59:41;99140.63;;;15.51;75.41
7026;BME280;3554;42.132;24.786;2023-03-31T09:02:18;99119.19;;;15.69;76.75
7026;BME280;3554;42.132;24.786;2023-03-31T09:04:58;99102.50;;;16.08;76.32
7026;BME280;3554;42.132;24.786;2023-03-31T09:07:36;99099.06;;;15.93;74.61
7026;BME280;3554;42.132;24.786;2023-03-31T09:10:21;99098.25;;;15.93;80.59
7026;BME280;3554;42.132;24.786;2023-03-31T09:12:54;99091.03;;;15.95;78.69
7026;BME280;3554;42.132;24.786;2023-03-31T09:15:25;99088.66;;;16.17;84.47
7026;BME280;3554;42.132;24.786;2023-03-31T09:17:54;99083.50;;;16.41;81.86
7026;BME280;3554;42.132;24.786;2023-03-31T09:20:27;99071.38;;;16.76;78.22
7026;BME280;3554;42.132;24.786;2023-03-31T09:23:00;99078.75;;;16.46;73.86
7026;BME280;3554;42.132;24.786;2023-03-31T09:25:36;99031.94;;;16.10;73.45
7026;BME280;3554;42.132;24.786;2023-03-31T09:28:13;99076.00;;;16.22;75.22
7026;BME280;3554;42.132;24.786;2023-03-31T09:30:45;99071.91;;;16.56;74.56
7026;BME280;3554;42.132;24.786;2023-03-31T09:33:17;99055.50;;;16.76;78.74
7026;BME280;3554;42.132;24.786;2023-03-31T09:35:44;99049.69;;;16.83;73.05
7026;BME280;3554;42.132;24.786;2023-03-31T09:38:12;99046.09;;;16.72;72.96
7026;BME280;3554;42.132;24.786;2023-03-31T09:40:41;99032.03;;;17.07;74.61
7026;BME280;3554;42.132;24.786;2023-03-31T09:43:16;99037.97;;;17.47;75.25
7026;BME280;3554;42.132;24.786;2023-03-31T09:45:45;99027.34;;;17.71;73.76
7026;BME280;3554;42.132;24.786;2023-03-31T09:48:16;99021.22;;;17.47;74.19
7026;BME280;3554;42.132;24.786;2023-03-31T09:50:46;99020.97;;;17.73;75.07
7026;BME280;3554;42.132;24.786;2023-03-31T09:53:18;99010.31;;;17.86;73.58
7026;BME280;3554;42.132;24.786;2023-03-31T09:55:51;99000.97;;;18.04;72.37
7026;BME280;3554;42.132;24.786;2023-03-31T09:58:17;99032.53;;;18.18;69.27
7026;BME280;3554;42.132;24.786;2023-03-31T10:00:57;99018.31;;;18.30;68.16
7026;BME280;3554;42.132;24.786;2023-03-31T10:03:24;99013.66;;;18.23;67.78
7026;BME280;3554;42.132;24.786;2023-03-31T10:05:55;99003.88;;;18.23;71.52
7026;BME280;3554;42.132;24.786;2023-03-31T10:08:26;99004.88;;;18.33;74.39
7026;BME280;3554;42.132;24.786;2023-03-31T10:10:56;99001.50;;;18.64;73.73
7026;BME280;3554;42.132;24.786;2023-03-31T10:13:37;98981.97;;;18.76;67.80
7026;BME280;3554;42.132;24.786;2023-03-31T10:16:11;98986.06;;;18.91;68.83
7026;BME280;3554;42.132;24.786;2023-03-31T10:18:40;98940.97;;;18.91;66.84
7026;BME280;3554;42.132;24.786;2023-03-31T10:21:19;98955.81;;;19.26;67.04
7026;BME280;3554;42.132;24.786;2023-03-31T10:23:47;98976.22;;;19.57;63.21
7026;BME280;3554;42.132;24.786;2023-03-31T10:26:19;98974.09;;;19.71;63.81
7026;BME280;3554;42.132;24.786;2023-03-31T10:28:47;98972.28;;;19.72;62.78
7026;BME280;3554;42.132;24.786;2023-03-31T10:31:17;98965.59;;;19.57;61.25
7026;BME280;3554;42.132;24.786;2023-03-31T10:33:47;98929.94;;;19.39;63.79
7026;BME280;3554;42.132;24.786;2023-03-31T10:36:20;98958.28;;;19.70;61.58
7026;BME280;3554;42.132;24.786;2023-03-31T10:38:49;98972.34;;;19.81;60.71
7026;BME280;3554;42.132;24.786;2023-03-31T10:41:20;98959.78;;;20.04;61.08
7026;BME280;3554;42.132;24.786;2023-03-31T10:43:49;98939.03;;;19.98;56.30
7026;BME280;3554;42.132;24.786;2023-03-31T10:46:17;98941.75;;;19.87;58.38
7026;BME280;3554;42.132;24.786;2023-03-31T10:48:44;98946.47;;;19.83;58.69
7026;BME280;3554;42.132;24.786;2023-03-31T10:51:14;98946.94;;;19.68;59.78
7026;BME280;3554;42.132;24.786;2023-03-31T10:53:43;98933.59;;;19.79;61.51
7026;BME280;3554;42.132;24.786;2023-03-31T10:56:36;98926.59;;;19.98;60.03
7026;BME280;3554;42.132;24.786;2023-03-31T10:59:21;98927.28;;;20.21;57.72
7026;BME280;3554;42.132;24.786;2023-03-31T11:01:59;98923.56;;;20.33;54.70
7026;BME280;3554;42.132;24.786;2023-03-31T11:04:54;98904.78;;;20.25;55.12
7026;BME280;3554;42.132;24.786;2023-03-31T11:07:33;98894.03;;;20.27;57.47
7026;BME280;3554;42.132;24.786;2023-03-31T11:10:22;98886.63;;;20.30;56.45
7026;BME280;3554;42.132;24.786;2023-03-31T11:13:02;98854.06;;;20.57;56.31
7026;BME280;3554;42.132;24.786;2023-03-31T11:15:38;98874.06;;;21.00;53.86
7026;BME280;3554;42.132;24.786;2023-03-31T11:18:17;98874.91;;;21.20;52.01
7026;BME280;3554;42.132;24.786;2023-03-31T11:21:00;98873.88;;;21.50;52.29
7026;BME280;3554;42.132;24.786;2023-03-31T11:23:39;98879.56;;;21.74;50.17
7026;BME280;3554;42.132;24.786;2023-03-31T11:26:09;98821.00;;;20.31;51.69
7026;BME280;3554;42.132;24.786;2023-03-31T11:28:52;98852.09;;;20.49;54.49
7026;BME280;3554;42.132;24.786;2023-03-31T11:31:30;98830.50;;;21.01;54.46
7026;BME280;3554;42.132;24.786;2023-03-31T11:34:14;98851.22;;;21.26;49.81
7026;BME280;3554;42.132;24.786;2023-03-31T11:37:06;98846.16;;;21.04;52.92
7026;BME280;3554;42.132;24.786;2023-03-31T11:39:46;98831.56;;;21.27;50.21
7026;BME280;3554;42.132;24.786;2023-03-31T11:42:20;98832.13;;;21.31;48.53
7026;BME280;3554;42.132;24.786;2023-03-31T11:44:55;98820.00;;;21.56;48.67
7026;BME280;3554;42.132;24.786;2023-03-31T11:47:25;98795.22;;;21.55;47.87
7026;BME280;3554;42.132;24.786;2023-03-31T11:49:56;98839.31;;;21.21;47.73
7026;BME280;3554;42.132;24.786;2023-03-31T11:52:27;98820.09;;;20.70;49.87
7026;BME280;3554;42.132;24.786;2023-03-31T11:54:57;98815.88;;;20.67;50.29
7026;BME280;3554;42.132;24.786;2023-03-31T11:57:28;98782.16;;;20.49;49.44
7026;BME280;3554;42.132;24.786;2023-03-31T12:00:00;98823.84;;;20.48;50.45
7026;BME280;3554;42.132;24.786;2023-03-31T12:02:37;98812.63;;;20.54;49.82
7026;BME280;3554;42.132;24.786;2023-03-31T12:05:08;98808.59;;;20.50;48.63
7026;BME280;3554;42.132;24.786;2023-03-31T12:07:39;98795.13;;;20.42;50.47
7026;BME280;3554;42.132;24.786;2023-03-31T12:10:16;98773.88;;;20.33;51.60
7026;BME280;3554;42.132;24.786;2023-03-31T12:12:47;98796.72;;;20.73;49.39
7026;BME280;3554;42.132;24.786;2023-03-31T12:15:21;98784.53;;;20.61;48.88
7026;BME280;3554;42.132;24.786;2023-03-31T12:17:55;98789.56;;;20.45;49.86
7026;BME280;3554;42.132;24.786;2023-03-31T12:20:28;98793.88;;;20.46;50.70
7026;BME280;3554;42.132;24.786;2023-03-31T12:22:57;98782.13;;;20.58;51.68
7026;BME280;3554;42.132;24.786;2023-03-31T12:25:30;98786.19;;;20.81;51.35
7026;BME280;3554;42.132;24.786;2023-03-31T12:28:02;98784.25;;;20.83;48.87
7026;BME280;3554;42.132;24.786;2023-03-31T12:30:32;98786.34;;;20.80;49.15
7026;BME280;3554;42.132;24.786;2023-03-31T12:33:05;98781.84;;;20.90;48.65
7026;BME280;3554;42.132;24.786;2023-03-31T12:35:38;98736.63;;;20.42;47.10
7026;BME280;3554;42.132;24.786;2023-03-31T12:38:18;98782.69;;;20.62;47.81
7026;BME280;3554;42.132;24.786;2023-03-31T12:40:58;98774.72;;;20.43;48.20
7026;BME280;3554;42.132;24.786;2023-03-31T12:43:42;98769.69;;;20.40;49.12
7026;BME280;3554;42.132;24.786;2023-03-31T12:46:42;98777.94;;;20.56;49.67
7026;BME280;3554;42.132;24.786;2023-03-31T12:49:31;98787.31;;;20.50;47.69
7026;BME280;3554;42.132;24.786;2023-03-31T12:52:03;98759.59;;;20.62;46.70
7026;BME280;3554;42.132;24.786;2023-03-31T12:55:04;98765.22;;;20.88;45.76
7026;BME280;3554;42.132;24.786;2023-03-31T12:57:34;98757.63;;;20.93;43.47
7026;BME280;3554;42.132;24.786;2023-03-31T13:00:28;98755.53;;;20.96;43.92
7026;BME280;3554;42.132;24.786;2023-03-31T13:06:01;98746.44;;;20.80;44.02
7026;BME280;3554;42.132;24.786;2023-03-31T13:08:48;98737.72;;;20.97;43.40
7026;BME280;3554;42.132;24.786;2023-03-31T13:11:15;98723.16;;;21.20;43.56
7026;BME280;3554;42.132;24.786;2023-03-31T13:13:45;98726.69;;;21.48;42.71
7026;BME280;3554;42.132;24.786;2023-03-31T13:16:19;98720.84;;;21.71;41.88
7026;BME280;3554;42.132;24.786;2023-03-31T13:18:50;98712.00;;;21.80;41.95
7026;BME280;3554;42.132;24.786;2023-03-31T13:21:19;98707.38;;;21.82;41.71
7026;BME280;3554;42.132;24.786;2023-03-31T13:23:46;98714.81;;;21.79;41.24
7026;BME280;3554;42.132;24.786;2023-03-31T13:26:35;98714.31;;;21.93;41.51
7026;BME280;3554;42.132;24.786;2023-03-31T13:29:18;98703.88;;;21.82;40.39
7026;BME280;3554;42.132;24.786;2023-03-31T13:32:04;98704.63;;;21.92;41.35
7026;BME280;3554;42.132;24.786;2023-03-31T13:34:34;98697.97;;;22.05;40.99
7026;BME280;3554;42.132;24.786;2023-03-31T13:37:16;98696.59;;;22.01;41.00
7026;BME280;3554;42.132;24.786;2023-03-31T13:40:20;98689.34;;;22.11;40.52
7026;BME280;3554;42.132;24.786;2023-03-31T13:43:07;98687.69;;;22.10;40.79